WZZ3422 UKLL-UKBB
Flight info
| Callsign | WZZ3422 |
|---|---|
| Flight time | 0h 48m |
| Altitude | 35000 |
| Route | ADBAN N983 SORON M986 SLV |
| Aircraft | A21N/M-SDE2E3FGHIRWXY/LB1 |
Departure
| Time | 2026-04-26 17:06 |
|---|---|
| Airport | Lviv International Airport (UKLL) |
Arrival
| Time | 2026-04-26 17:55 |
|---|---|
| Airport | Boryspil International Airport (UKBB) |
| Time | Latitude | Longitude | Altitude | Speed | Heading |
|---|---|---|---|---|---|
| 2026-04-26 16:46 | 49.81231 | 23.95956 | 1068 ft | 0 kts | 46° |
| 2026-04-26 16:57 | 49.81230 | 23.95953 | 1065 ft | 2 kts | 46° |
| 2026-04-26 16:58 | 49.81213 | 23.95923 | 1076 ft | 4 kts | 55° |
| 2026-04-26 16:58 | 49.81204 | 23.95900 | 1069 ft | 4 kts | 66° |
| 2026-04-26 16:58 | 49.81206 | 23.95832 | 1075 ft | 1 kts | 136° |
| 2026-04-26 16:59 | 49.81208 | 23.95831 | 1075 ft | 0 kts | 136° |
| 2026-04-26 17:01 | 49.81203 | 23.95838 | 1072 ft | 3 kts | 136° |
| 2026-04-26 17:02 | 49.81177 | 23.95876 | 1072 ft | 8 kts | 136° |
| 2026-04-26 17:02 | 49.81134 | 23.95941 | 1071 ft | 10 kts | 136° |
| 2026-04-26 17:02 | 49.81081 | 23.96020 | 1071 ft | 11 kts | 141° |
| 2026-04-26 17:02 | 49.80998 | 23.96034 | 1071 ft | 13 kts | 183° |
| 2026-04-26 17:03 | 49.80896 | 23.96027 | 1070 ft | 16 kts | 181° |
| 2026-04-26 17:03 | 49.80797 | 23.96106 | 1070 ft | 17 kts | 135° |
| 2026-04-26 17:03 | 49.80707 | 23.96240 | 1070 ft | 19 kts | 135° |
| 2026-04-26 17:03 | 49.80610 | 23.96385 | 1071 ft | 20 kts | 136° |
| 2026-04-26 17:04 | 49.80507 | 23.96539 | 1069 ft | 21 kts | 136° |
| 2026-04-26 17:04 | 49.80399 | 23.96701 | 1069 ft | 22 kts | 136° |
| 2026-04-26 17:04 | 49.80286 | 23.96870 | 1069 ft | 23 kts | 135° |
| 2026-04-26 17:04 | 49.80166 | 23.97050 | 1069 ft | 25 kts | 136° |
| 2026-04-26 17:05 | 49.80041 | 23.97237 | 1070 ft | 18 kts | 135° |
| 2026-04-26 17:05 | 49.79998 | 23.97319 | 1071 ft | 8 kts | 107° |
| 2026-04-26 17:05 | 49.79985 | 23.97406 | 1071 ft | 9 kts | 135° |
| 2026-04-26 17:05 | 49.79932 | 23.97433 | 1070 ft | 10 kts | 236° |
| 2026-04-26 17:06 | 49.79973 | 23.97339 | 1071 ft | 14 kts | 316° |
| 2026-04-26 17:06 | 49.80228 | 23.96957 | 1069 ft | 91 kts | 316° |
| 2026-04-26 17:06 | 49.80851 | 23.96025 | 1121 ft | 146 kts | 316° |
| 2026-04-26 17:06 | 49.81567 | 23.94956 | 1940 ft | 140 kts | 319° |
| 2026-04-26 17:07 | 49.82307 | 23.93937 | 2673 ft | 147 kts | 319° |
| 2026-04-26 17:07 | 49.83074 | 23.92802 | 3261 ft | 159 kts | 317° |
| 2026-04-26 17:07 | 49.83929 | 23.91549 | 3780 ft | 179 kts | 317° |
| 2026-04-26 17:07 | 49.84888 | 23.90151 | 4301 ft | 202 kts | 317° |
| 2026-04-26 17:08 | 49.85961 | 23.88579 | 4765 ft | 226 kts | 317° |
| 2026-04-26 17:08 | 49.87133 | 23.86865 | 5577 ft | 235 kts | 317° |
| 2026-04-26 17:08 | 49.88326 | 23.85123 | 6551 ft | 237 kts | 317° |
| 2026-04-26 17:08 | 49.89530 | 23.83366 | 7521 ft | 238 kts | 317° |
| 2026-04-26 17:09 | 49.90889 | 23.81895 | 8434 ft | 241 kts | 334° |
| 2026-04-26 17:09 | 49.91952 | 23.81378 | 9058 ft | 244 kts | 347° |
| 2026-04-26 17:09 | 49.94246 | 23.81682 | 10267 ft | 259 kts | 13° |
| 2026-04-26 17:09 | 49.95816 | 23.83167 | 11115 ft | 274 kts | 34° |
| 2026-04-26 17:10 | 49.96928 | 23.85630 | 11966 ft | 295 kts | 57° |
| 2026-04-26 17:10 | 49.97300 | 23.88890 | 12811 ft | 323 kts | 84° |
| 2026-04-26 17:10 | 49.96886 | 23.92425 | 13452 ft | 342 kts | 94° |
| 2026-04-26 17:10 | 49.96379 | 23.96097 | 13988 ft | 353 kts | 92° |
| 2026-04-26 17:11 | 49.95905 | 23.99862 | 14625 ft | 357 kts | 91° |
| 2026-04-26 17:11 | 49.95457 | 24.03672 | 15306 ft | 360 kts | 90° |
| 2026-04-26 17:11 | 49.95021 | 24.07528 | 15974 ft | 365 kts | 90° |
| 2026-04-26 17:11 | 49.94586 | 24.11449 | 16493 ft | 375 kts | 90° |
| 2026-04-26 17:12 | 49.93663 | 24.19757 | 17307 ft | 401 kts | 90° |
| 2026-04-26 17:12 | 49.93162 | 24.23995 | 17949 ft | 409 kts | 93° |
| 2026-04-26 17:13 | 49.91555 | 24.32672 | 19161 ft | 424 kts | 98° |
| 2026-04-26 17:13 | 49.90696 | 24.37075 | 19704 ft | 429 kts | 98° |
| 2026-04-26 17:13 | 49.88972 | 24.46028 | 20780 ft | 438 kts | 98° |
| 2026-04-26 17:14 | 49.88095 | 24.50594 | 21317 ft | 443 kts | 98° |
| 2026-04-26 17:14 | 49.86316 | 24.59834 | 22420 ft | 452 kts | 98° |
| 2026-04-26 17:14 | 49.85411 | 24.64525 | 22946 ft | 457 kts | 98° |
| 2026-04-26 17:15 | 49.83577 | 24.73974 | 23924 ft | 465 kts | 99° |
| 2026-04-26 17:15 | 49.82638 | 24.78793 | 24378 ft | 470 kts | 99° |
| 2026-04-26 17:15 | 49.81690 | 24.83651 | 24776 ft | 474 kts | 99° |
| 2026-04-26 17:16 | 49.80762 | 24.88562 | 25187 ft | 475 kts | 96° |
| 2026-04-26 17:16 | 49.80332 | 24.93522 | 25789 ft | 453 kts | 81° |
| 2026-04-26 17:16 | 49.80298 | 24.98274 | 26924 ft | 431 kts | 78° |
| 2026-04-26 17:16 | 49.80304 | 25.02801 | 28050 ft | 412 kts | 77° |
| 2026-04-26 17:17 | 49.80314 | 25.07153 | 28645 ft | 409 kts | 77° |
| 2026-04-26 17:17 | 49.80322 | 25.11569 | 28942 ft | 412 kts | 77° |
| 2026-04-26 17:17 | 49.80319 | 25.16030 | 29208 ft | 416 kts | 78° |
| 2026-04-26 17:17 | 49.80303 | 25.20520 | 29494 ft | 419 kts | 78° |
| 2026-04-26 17:18 | 49.80281 | 25.25051 | 29796 ft | 422 kts | 78° |
| 2026-04-26 17:18 | 49.80257 | 25.29615 | 30052 ft | 426 kts | 78° |
| 2026-04-26 17:18 | 49.80235 | 25.34212 | 30290 ft | 428 kts | 78° |
| 2026-04-26 17:18 | 49.80210 | 25.38838 | 30518 ft | 431 kts | 78° |
| 2026-04-26 17:19 | 49.80155 | 25.48091 | 30975 ft | 435 kts | 78° |
| 2026-04-26 17:19 | 49.80124 | 25.52842 | 31198 ft | 437 kts | 78° |
| 2026-04-26 17:19 | 49.80091 | 25.57479 | 31416 ft | 439 kts | 79° |
| 2026-04-26 17:20 | 49.80057 | 25.62209 | 31624 ft | 440 kts | 79° |
| 2026-04-26 17:20 | 49.80033 | 25.65357 | 31766 ft | 442 kts | 79° |
| 2026-04-26 17:20 | 49.79979 | 25.71734 | 32090 ft | 444 kts | 79° |
| 2026-04-26 17:20 | 49.79935 | 25.76530 | 32275 ft | 447 kts | 79° |
| 2026-04-26 17:21 | 49.79889 | 25.81348 | 32459 ft | 449 kts | 79° |
| 2026-04-26 17:21 | 49.79842 | 25.86187 | 32642 ft | 450 kts | 79° |
| 2026-04-26 17:21 | 49.79795 | 25.90983 | 32825 ft | 452 kts | 80° |
| 2026-04-26 17:21 | 49.79744 | 25.95853 | 33059 ft | 454 kts | 80° |
| 2026-04-26 17:22 | 49.79635 | 26.05732 | 33132 ft | 466 kts | 81° |
| 2026-04-26 17:22 | 49.79515 | 26.15912 | 33109 ft | 480 kts | 81° |
| 2026-04-26 17:23 | 49.79377 | 26.26414 | 33122 ft | 496 kts | 82° |
| 2026-04-26 17:23 | 49.79228 | 26.37174 | 33098 ft | 509 kts | 82° |
| 2026-04-26 17:24 | 49.79061 | 26.48137 | 33086 ft | 510 kts | 82° |
| 2026-04-26 17:24 | 49.78882 | 26.59116 | 33080 ft | 510 kts | 82° |
| 2026-04-26 17:25 | 49.78699 | 26.70098 | 33072 ft | 510 kts | 82° |
| 2026-04-26 17:25 | 49.78511 | 26.80999 | 33064 ft | 510 kts | 83° |
| 2026-04-26 17:26 | 49.78309 | 26.91965 | 33058 ft | 510 kts | 83° |
| 2026-04-26 17:26 | 49.78088 | 27.02944 | 33142 ft | 510 kts | 83° |
| 2026-04-26 17:27 | 49.77862 | 27.13859 | 33067 ft | 506 kts | 83° |
| 2026-04-26 17:27 | 49.77629 | 27.24742 | 33067 ft | 506 kts | 84° |
| 2026-04-26 17:28 | 49.77391 | 27.35552 | 33041 ft | 506 kts | 84° |
| 2026-04-26 17:28 | 49.77135 | 27.46428 | 33036 ft | 507 kts | 84° |
| 2026-04-26 17:29 | 49.76915 | 27.55487 | 33035 ft | 507 kts | 84° |
| 2026-04-26 17:29 | 49.76597 | 27.68211 | 33022 ft | 507 kts | 84° |
| 2026-04-26 17:30 | 49.76320 | 27.79026 | 33023 ft | 506 kts | 83° |
| 2026-04-26 17:30 | 49.76481 | 27.84392 | 33013 ft | 493 kts | 72° |
| 2026-04-26 17:30 | 49.77243 | 27.89465 | 33018 ft | 476 kts | 60° |
| 2026-04-26 17:31 | 49.79671 | 27.98879 | 33072 ft | 471 kts | 57° |
| 2026-04-26 17:31 | 49.82138 | 28.08279 | 33021 ft | 472 kts | 58° |
| 2026-04-26 17:32 | 49.84533 | 28.17684 | 33013 ft | 472 kts | 58° |
| 2026-04-26 17:32 | 49.86928 | 28.27167 | 33013 ft | 473 kts | 58° |
| 2026-04-26 17:33 | 49.89302 | 28.36669 | 33005 ft | 478 kts | 62° |
| 2026-04-26 17:33 | 49.90010 | 28.41764 | 32738 ft | 489 kts | 73° |
| 2026-04-26 17:34 | 49.90780 | 28.52360 | 32151 ft | 496 kts | 75° |
| 2026-04-26 17:34 | 49.91171 | 28.57684 | 31838 ft | 496 kts | 74° |
| 2026-04-26 17:34 | 49.91578 | 28.62918 | 31198 ft | 494 kts | 73° |
| 2026-04-26 17:34 | 49.92000 | 28.68202 | 30534 ft | 493 kts | 73° |
| 2026-04-26 17:35 | 49.92422 | 28.73473 | 29834 ft | 491 kts | 72° |
| 2026-04-26 17:35 | 49.92836 | 28.78713 | 29121 ft | 487 kts | 72° |
| 2026-04-26 17:35 | 49.93243 | 28.83892 | 28468 ft | 481 kts | 72° |
| 2026-04-26 17:35 | 49.93641 | 28.89015 | 27830 ft | 476 kts | 72° |
| 2026-04-26 17:36 | 49.94038 | 28.94081 | 27197 ft | 470 kts | 72° |
| 2026-04-26 17:36 | 49.94428 | 28.99095 | 26497 ft | 465 kts | 72° |
| 2026-04-26 17:36 | 49.94811 | 29.04057 | 25779 ft | 460 kts | 72° |
| 2026-04-26 17:36 | 49.95186 | 29.08959 | 25050 ft | 454 kts | 72° |
| 2026-04-26 17:37 | 49.95554 | 29.13799 | 24354 ft | 449 kts | 72° |
| 2026-04-26 17:37 | 49.95911 | 29.18530 | 23744 ft | 445 kts | 72° |
| 2026-04-26 17:37 | 49.96269 | 29.23281 | 23200 ft | 438 kts | 74° |
| 2026-04-26 17:38 | 49.96959 | 29.32507 | 21988 ft | 424 kts | 75° |
| 2026-04-26 17:38 | 49.97297 | 29.37030 | 21418 ft | 419 kts | 75° |
| 2026-04-26 17:38 | 49.97628 | 29.41500 | 20862 ft | 414 kts | 76° |
| 2026-04-26 17:38 | 49.97953 | 29.45917 | 20295 ft | 409 kts | 76° |
| 2026-04-26 17:39 | 49.98273 | 29.50279 | 19722 ft | 404 kts | 77° |
| 2026-04-26 17:39 | 49.98584 | 29.54573 | 19145 ft | 398 kts | 78° |
| 2026-04-26 17:39 | 49.98890 | 29.58822 | 18603 ft | 393 kts | 78° |
| 2026-04-26 17:39 | 49.99187 | 29.62962 | 18043 ft | 388 kts | 78° |
| 2026-04-26 17:40 | 49.99486 | 29.67104 | 17464 ft | 384 kts | 78° |
| 2026-04-26 17:40 | 49.99684 | 29.69886 | 17080 ft | 381 kts | 78° |
| 2026-04-26 17:40 | 50.00064 | 29.75270 | 16323 ft | 376 kts | 78° |
| 2026-04-26 17:40 | 50.00347 | 29.79288 | 15768 ft | 372 kts | 78° |
| 2026-04-26 17:41 | 50.00625 | 29.83267 | 15233 ft | 368 kts | 78° |
| 2026-04-26 17:41 | 50.00899 | 29.87208 | 14702 ft | 365 kts | 78° |
| 2026-04-26 17:41 | 50.01167 | 29.91112 | 14180 ft | 361 kts | 79° |
| 2026-04-26 17:41 | 50.01430 | 29.94971 | 13657 ft | 358 kts | 79° |
| 2026-04-26 17:42 | 50.01692 | 29.98801 | 13123 ft | 354 kts | 78° |
| 2026-04-26 17:42 | 50.01948 | 30.02545 | 12577 ft | 351 kts | 78° |
| 2026-04-26 17:42 | 50.02205 | 30.06298 | 12041 ft | 347 kts | 78° |
| 2026-04-26 17:42 | 50.02458 | 30.10008 | 11481 ft | 344 kts | 78° |
| 2026-04-26 17:43 | 50.02711 | 30.13703 | 10944 ft | 341 kts | 78° |
| 2026-04-26 17:43 | 50.02953 | 30.17319 | 10626 ft | 332 kts | 78° |
| 2026-04-26 17:43 | 50.03185 | 30.20821 | 10391 ft | 319 kts | 78° |
| 2026-04-26 17:43 | 50.03407 | 30.24190 | 10198 ft | 307 kts | 78° |
| 2026-04-26 17:44 | 50.03624 | 30.27454 | 9862 ft | 301 kts | 78° |
| 2026-04-26 17:44 | 50.03835 | 30.30632 | 9408 ft | 298 kts | 78° |
| 2026-04-26 17:44 | 50.04047 | 30.33836 | 8925 ft | 297 kts | 78° |
| 2026-04-26 17:44 | 50.04257 | 30.37026 | 8453 ft | 296 kts | 78° |
| 2026-04-26 17:45 | 50.04464 | 30.40197 | 7995 ft | 294 kts | 78° |
| 2026-04-26 17:45 | 50.04669 | 30.43355 | 7545 ft | 293 kts | 78° |
| 2026-04-26 17:45 | 50.04871 | 30.46497 | 7112 ft | 291 kts | 78° |
| 2026-04-26 17:45 | 50.05073 | 30.49620 | 6683 ft | 289 kts | 78° |
| 2026-04-26 17:46 | 50.05275 | 30.52730 | 6239 ft | 288 kts | 78° |
| 2026-04-26 17:46 | 50.05475 | 30.55828 | 5769 ft | 287 kts | 78° |
| 2026-04-26 17:46 | 50.05670 | 30.58867 | 5204 ft | 285 kts | 78° |
| 2026-04-26 17:46 | 50.05863 | 30.61926 | 4734 ft | 284 kts | 78° |
| 2026-04-26 17:47 | 50.06050 | 30.64967 | 4298 ft | 282 kts | 78° |
| 2026-04-26 17:47 | 50.06185 | 30.67019 | 3993 ft | 282 kts | 78° |
| 2026-04-26 17:47 | 50.06462 | 30.71039 | 3452 ft | 281 kts | 78° |
| 2026-04-26 17:47 | 50.06676 | 30.74052 | 3092 ft | 278 kts | 78° |
| 2026-04-26 17:48 | 50.06880 | 30.76966 | 3006 ft | 263 kts | 78° |
| 2026-04-26 17:48 | 50.07180 | 30.79654 | 2998 ft | 241 kts | 61° |
| 2026-04-26 17:48 | 50.08048 | 30.81767 | 3019 ft | 228 kts | 40° |
| 2026-04-26 17:48 | 50.09100 | 30.83601 | 3048 ft | 226 kts | 38° |
| 2026-04-26 17:49 | 50.10150 | 30.85375 | 3045 ft | 226 kts | 38° |
| 2026-04-26 17:49 | 50.11221 | 30.87172 | 3046 ft | 227 kts | 38° |
| 2026-04-26 17:49 | 50.12447 | 30.88574 | 3033 ft | 213 kts | 14° |
| 2026-04-26 17:49 | 50.13842 | 30.89139 | 3039 ft | 204 kts | 0° |
| 2026-04-26 17:50 | 50.15211 | 30.89188 | 3027 ft | 187 kts | 351° |
| 2026-04-26 17:50 | 50.16473 | 30.89235 | 3019 ft | 180 kts | 354° |
| 2026-04-26 17:50 | 50.17724 | 30.89314 | 3026 ft | 180 kts | 354° |
| 2026-04-26 17:50 | 50.18972 | 30.89403 | 3033 ft | 180 kts | 354° |
| 2026-04-26 17:51 | 50.20220 | 30.89493 | 2920 ft | 179 kts | 354° |
| 2026-04-26 17:51 | 50.21468 | 30.89584 | 2685 ft | 180 kts | 354° |
| 2026-04-26 17:51 | 50.22713 | 30.89677 | 2446 ft | 174 kts | 354° |
| 2026-04-26 17:51 | 50.23869 | 30.89763 | 2244 ft | 159 kts | 354° |
| 2026-04-26 17:52 | 50.24922 | 30.89841 | 2041 ft | 146 kts | 353° |
| 2026-04-26 17:52 | 50.25932 | 30.89913 | 1838 ft | 145 kts | 354° |
| 2026-04-26 17:52 | 50.26903 | 30.89988 | 1630 ft | 133 kts | 353° |
| 2026-04-26 17:52 | 50.27770 | 30.90050 | 1421 ft | 123 kts | 353° |
| 2026-04-26 17:53 | 50.28630 | 30.90105 | 1227 ft | 124 kts | 355° |
| 2026-04-26 17:53 | 50.29504 | 30.90177 | 1028 ft | 127 kts | 358° |
| 2026-04-26 17:53 | 50.30379 | 30.90239 | 856 ft | 124 kts | 354° |
| 2026-04-26 17:54 | 50.32126 | 30.90362 | 515 ft | 125 kts | 356° |
| 2026-04-26 17:54 | 50.32982 | 30.90419 | 416 ft | 111 kts | 0° |
| 2026-04-26 17:54 | 50.33541 | 30.90462 | 420 ft | 52 kts | 2° |
| 2026-04-26 17:54 | 50.33886 | 30.90487 | 425 ft | 50 kts | 2° |
| 2026-04-26 17:55 | 50.34167 | 30.90504 | 418 ft | 23 kts | 359° |
| 2026-04-26 17:55 | 50.34314 | 30.90465 | 424 ft | 21 kts | 341° |
| 2026-04-26 17:55 | 50.34442 | 30.90370 | 423 ft | 16 kts | 333° |
| 2026-04-26 17:55 | 50.34481 | 30.90338 | 412 ft | 0 kts | 331° |
| 2026-04-26 17:56 | 50.34491 | 30.90329 | 416 ft | 5 kts | 331° |
| 2026-04-26 17:57 | 50.34625 | 30.90227 | 416 ft | 14 kts | 346° |
| 2026-04-26 17:57 | 50.34726 | 30.90226 | 411 ft | 14 kts | 1° |
| 2026-04-26 17:57 | 50.34819 | 30.90230 | 417 ft | 11 kts | 3° |
| 2026-04-26 17:57 | 50.34885 | 30.90181 | 415 ft | 12 kts | 289° |
| 2026-04-26 17:58 | 50.34974 | 30.90022 | 420 ft | 7 kts | 71° |
| 2026-04-26 17:59 | 50.34973 | 30.90125 | 420 ft | 0 kts | 93° |